Talmage, Pennsylvania
Current Conditions -  °F | °C
As of 12:53 PM on Sunday 25 Jan 2015 (Local Time) from KLNS Reporting Station
Broken Clouds Broken Clouds  
Wind Chill: 31°   Ceiling: 3900
Heat Index: 38°   Visibility: 10mi
Dew Point: 30°   Wind: 9mph
Humidity: 73%   Direction: 300°WNW
Pressure: 29.79"   Gusts: NA
Location:  40°N, 76.21°W
Report Text: KLNS 251753Z 30008KT 10SM FEW027 BKN039 BKN050 03/M01 A2979 RMK AO2 RAB1657E22 PRESFR SLP090 P0000 60000 T00331011 10039 20017 50004
Loading
Personal Weather Stations






























Interactive Weather Map New forecast layout! Learn more

10-Day Weather Forecast

Advertisements
Track Severe Weather on mobile